Weather at Medeno Polje Airstrip

Public forecast

Using degrees Celsius for public forecast. Weather courtesy of forecast.io.

Closest aviation weather report (METAR) to Medeno Polje Airstrip

Closest report is Banja Luka International Airport, 48.6 nm (90.0 km) ENE.

2024/05/21 13:00 (retrieved 16 minutes ago)

LQBK 211300Z 14010G28KT 090V180 7000 TSRA FEW012 FEW030CB BKN045 21/19 Q1005 NOSIG

Closest aviation forecast (TAF) to Medeno Polje Airstrip

Closest forecast is Banja Luka International Airport, 48.6 nm (90.0 km) ENE.

2024/05/21 12:06 (retrieved 1 hour ago)

TAF LQBK 211100Z 2112/2212 06006KT 9999 SCT045 TX29/2112Z TN14/2204Z TEMPO 2112/2118 VRB15G25KT 4000 TSRA SCT013 FEW035CB BKN040 PROB30 TEMPO 2113/2116 VRB20G35KT 2000 TSGR SCT010 FEW030CB BKN035 PROB30 TEMPO 2122/2124 2000 BCFG